Date,TemperatureHighF,TemperatureAvgF,TemperatureLowF,DewpointHighF,DewpointAvgF,DewpointLowF,HumidityHigh,HumidityAvg,HumidityLow,PressureMaxIn,PressureMinIn,WindSpeedMaxMPH,WindSpeedAvgMPH,GustSpeedMaxMPH,PrecipitationSumIn
2013-8-1,85,77,70,-100,-100,-100,0,0,100,0.00,40.00,0,-999,0,0.00
2013-8-2,85,76,69,-100,-100,-100,0,0,100,0.00,40.00,0,-999,0,0.00
2013-8-3,84,75,68,-100,-100,-100,0,0,100,0.00,40.00,0,-999,0,0.00
2013-8-4,86,79,73,-100,-100,-100,0,0,100,0.00,40.00,0,-999,0,0.00
2013-8-5,81,75,71,-100,-100,-100,0,0,100,0.00,40.00,0,-999,0,0.00
2013-8-6,79,74,71,-100,-100,-100,0,0,100,0.00,40.00,0,-999,0,0.00
2013-8-7,87,77,72,-100,-100,-100,0,0,100,0.00,40.00,0,-999,0,0.00
2013-8-8,88,77,70,-100,-100,-100,0,0,100,0.00,40.00,0,-999,0,0.00
2013-8-9,89,79,72,-100,-100,-100,0,0,100,0.00,40.00,0,-999,0,0.00
2013-8-10,83,77,73,-100,-100,-100,0,0,100,0.00,40.00,0,-999,0,0.00
2013-8-11,87,78,71,-100,-100,-100,0,0,100,0.00,40.00,0,-999,0,0.00
2013-8-12,88,79,72,-100,-100,-100,0,0,100,0.00,40.00,0,-999,0,0.00
2013-8-13,84,79,73,-100,-100,-100,0,0,100,0.00,40.00,0,-999,0,0.00
2013-8-14,80,75,70,-100,-100,-100,0,0,100,0.00,40.00,0,-999,0,0.00
2013-8-15,76,71,68,-100,-100,-100,0,0,100,0.00,40.00,0,-999,0,0.00
2013-8-16,71,69,67,-100,-100,-100,0,0,100,0.00,40.00,0,-999,0,0.00
2013-8-17,70,68,66,-100,-100,-100,0,0,100,0.00,40.00,0,-999,0,0.00
2013-8-18,76,71,67,-100,-100,-100,0,0,100,0.00,40.00,0,-999,0,0.00
2013-8-19,84,75,70,-100,-100,-100,0,0,100,0.00,40.00,0,-999,0,0.00
2013-8-20,82,77,73,-100,-100,-100,0,0,100,0.00,40.00,0,-999,0,0.00
2013-8-21,86,77,72,-100,-100,-100,0,0,100,0.00,40.00,0,-999,0,0.00
2013-8-22,84,77,71,-100,-100,-100,0,0,100,0.00,40.00,0,-999,0,0.00
2013-8-23,87,79,72,-100,-100,-100,0,0,100,0.00,40.00,0,-999,0,0.00
2013-8-24,86,78,73,-100,-100,-100,0,0,100,0.00,40.00,0,-999,0,0.00
2013-8-25,84,76,69,-100,-100,-100,0,0,100,0.00,40.00,0,-999,0,0.00
2013-8-26,83,74,64,-100,-100,-100,0,0,100,0.00,40.00,0,-999,0,0.00
2013-8-27,83,71,64,-100,-100,-100,0,0,100,0.00,40.00,0,-999,0,0.00
2013-8-28,87,82,73,-100,-100,-100,0,0,100,0.00,40.00,0,-999,0,0.00
2013-8-29,89,79,69,-100,-100,-100,0,0,100,0.00,40.00,0,-999,0,0.00
2013-8-30,91,80,72,-100,-100,-100,0,0,100,0.00,40.00,0,-999,0,0.00
2013-8-31,90,80,73,-100,-100,-100,0,0,100,0.00,40.00,0,-999,0,0.00